Deford, Michigan
Current Conditions -  °F | °C
As of 4:05 PM on Saturday 22 Nov 2014 (Local Time) from KCFS Reporting Station
Overcast Overcast  
Wind Chill: 34°   Ceiling: 700
Heat Index: 41°   Visibility: 4mi
Dew Point: 39°   Wind: 12mph
Humidity: 93%   Direction: 200°SSW
Pressure: 29.88"   Gusts: 16mph
Location:  43.51°N, 83.19°W
Report Text: KCFS 222105Z AUTO 20010G14KT 4SM OVC007 05/04 A2988 RMK AO2
Loading
Personal Weather Stations






























Interactive Weather Map New forecast layout! Learn more

10-Day Weather Forecast

Advertisements
Track Severe Weather on mobile